sensor_id;sensor_type;location;lat;lon;timestamp;P1;durP1;ratioP1;P2;durP2;ratioP2
69623;SDS011;56843;52.020;5.670;2022-12-07T00:00:19;16.20;;;5.55;;
69623;SDS011;56843;52.020;5.670;2022-12-07T00:01:50;10.80;;;4.47;;
69623;SDS011;56843;52.020;5.670;2022-12-07T00:03:20;11.77;;;5.70;;
69623;SDS011;56843;52.020;5.670;2022-12-07T00:04:51;14.05;;;4.75;;
69623;SDS011;56843;52.020;5.670;2022-12-07T00:06:22;15.87;;;6.53;;
69623;SDS011;56843;52.020;5.670;2022-12-07T00:07:53;13.05;;;5.97;;
69623;SDS011;56843;52.020;5.670;2022-12-07T00:09:23;14.70;;;5.47;;
69623;SDS011;56843;52.020;5.670;2022-12-07T00:10:53;15.63;;;6.07;;
69623;SDS011;56843;52.020;5.670;2022-12-07T00:12:24;13.35;;;5.70;;
69623;SDS011;56843;52.020;5.670;2022-12-07T00:13:58;12.83;;;5.37;;
69623;SDS011;56843;52.020;5.670;2022-12-07T00:15:30;15.02;;;5.65;;
69623;SDS011;56843;52.020;5.670;2022-12-07T00:17:00;12.30;;;5.60;;
69623;SDS011;56843;52.020;5.670;2022-12-07T00:18:31;13.97;;;5.70;;
69623;SDS011;56843;52.020;5.670;2022-12-07T00:20:02;11.95;;;5.70;;
69623;SDS011;56843;52.020;5.670;2022-12-07T00:21:34;10.23;;;4.75;;
69623;SDS011;56843;52.020;5.670;2022-12-07T00:23:05;15.27;;;5.90;;
69623;SDS011;56843;52.020;5.670;2022-12-07T00:24:36;13.23;;;5.70;;
69623;SDS011;56843;52.020;5.670;2022-12-07T00:26:10;13.83;;;4.87;;
69623;SDS011;56843;52.020;5.670;2022-12-07T00:27:43;12.45;;;4.90;;
69623;SDS011;56843;52.020;5.670;2022-12-07T00:29:20;13.20;;;3.95;;
69623;SDS011;56843;52.020;5.670;2022-12-07T00:30:51;10.27;;;3.83;;
69623;SDS011;56843;52.020;5.670;2022-12-07T00:32:22;10.27;;;4.00;;
69623;SDS011;56843;52.020;5.670;2022-12-07T00:33:52;11.47;;;4.50;;
69623;SDS011;56843;52.020;5.670;2022-12-07T00:35:23;11.27;;;3.95;;
69623;SDS011;56843;52.020;5.670;2022-12-07T00:36:54;8.53;;;4.07;;
69623;SDS011;56843;52.020;5.670;2022-12-07T00:38:24;12.00;;;5.17;;
69623;SDS011;56843;52.020;5.670;2022-12-07T00:39:57;12.85;;;5.40;;
69623;SDS011;56843;52.020;5.670;2022-12-07T00:41:28;12.53;;;5.33;;
69623;SDS011;56843;52.020;5.670;2022-12-07T00:42:59;16.70;;;5.22;;
69623;SDS011;56843;52.020;5.670;2022-12-07T00:44:29;12.60;;;5.07;;
69623;SDS011;56843;52.020;5.670;2022-12-07T00:46:00;9.80;;;3.93;;
69623;SDS011;56843;52.020;5.670;2022-12-07T00:47:30;13.40;;;4.80;;
69623;SDS011;56843;52.020;5.670;2022-12-07T00:49:01;11.35;;;4.75;;
69623;SDS011;56843;52.020;5.670;2022-12-07T00:50:31;11.67;;;4.27;;
69623;SDS011;56843;52.020;5.670;2022-12-07T00:52:02;15.25;;;5.13;;
69623;SDS011;56843;52.020;5.670;2022-12-07T00:53:35;9.00;;;4.27;;
69623;SDS011;56843;52.020;5.670;2022-12-07T00:55:07;11.02;;;4.93;;
69623;SDS011;56843;52.020;5.670;2022-12-07T00:56:37;11.60;;;5.32;;
69623;SDS011;56843;52.020;5.670;2022-12-07T00:58:08;10.13;;;5.00;;
69623;SDS011;56843;52.020;5.670;2022-12-07T00:59:39;11.75;;;4.65;;
69623;SDS011;56843;52.020;5.670;2022-12-07T01:01:09;12.80;;;4.97;;
69623;SDS011;56843;52.020;5.670;2022-12-07T01:02:41;11.20;;;5.07;;
69623;SDS011;56843;52.020;5.670;2022-12-07T01:04:11;10.87;;;4.57;;
69623;SDS011;56843;52.020;5.670;2022-12-07T01:05:51;13.27;;;4.80;;
69623;SDS011;56843;52.020;5.670;2022-12-07T01:07:23;9.75;;;3.88;;
69623;SDS011;56843;52.020;5.670;2022-12-07T01:08:54;9.30;;;3.63;;
69623;SDS011;56843;52.020;5.670;2022-12-07T01:10:25;11.82;;;3.88;;
69623;SDS011;56843;52.020;5.670;2022-12-07T01:11:56;5.15;;;2.28;;
69623;SDS011;56843;52.020;5.670;2022-12-07T01:13:27;13.80;;;5.13;;
69623;SDS011;56843;52.020;5.670;2022-12-07T01:14:58;11.63;;;4.40;;
69623;SDS011;56843;52.020;5.670;2022-12-07T01:16:29;14.47;;;4.20;;
69623;SDS011;56843;52.020;5.670;2022-12-07T01:18:01;11.73;;;4.55;;
69623;SDS011;56843;52.020;5.670;2022-12-07T01:19:31;13.43;;;5.60;;
69623;SDS011;56843;52.020;5.670;2022-12-07T01:21:12;8.03;;;3.73;;
69623;SDS011;56843;52.020;5.670;2022-12-07T01:22:45;10.52;;;3.92;;
69623;SDS011;56843;52.020;5.670;2022-12-07T01:24:15;13.90;;;4.60;;
69623;SDS011;56843;52.020;5.670;2022-12-07T01:25:53;12.07;;;4.13;;
69623;SDS011;56843;52.020;5.670;2022-12-07T01:27:24;7.25;;;3.35;;
69623;SDS011;56843;52.020;5.670;2022-12-07T01:28:55;3.77;;;1.73;;
69623;SDS011;56843;52.020;5.670;2022-12-07T01:30:25;12.48;;;4.25;;
69623;SDS011;56843;52.020;5.670;2022-12-07T01:31:55;12.27;;;4.63;;
69623;SDS011;56843;52.020;5.670;2022-12-07T01:33:27;6.65;;;3.42;;
69623;SDS011;56843;52.020;5.670;2022-12-07T01:34:59;11.33;;;5.10;;
69623;SDS011;56843;52.020;5.670;2022-12-07T01:36:33;11.27;;;4.18;;
69623;SDS011;56843;52.020;5.670;2022-12-07T01:38:05;13.57;;;4.63;;
69623;SDS011;56843;52.020;5.670;2022-12-07T01:39:35;10.47;;;4.07;;
69623;SDS011;56843;52.020;5.670;2022-12-07T01:41:06;12.87;;;4.57;;
69623;SDS011;56843;52.020;5.670;2022-12-07T01:42:37;12.40;;;4.18;;
69623;SDS011;56843;52.020;5.670;2022-12-07T01:44:26;8.73;;;4.10;;
69623;SDS011;56843;52.020;5.670;2022-12-07T01:46:03;22.23;;;5.10;;
69623;SDS011;56843;52.020;5.670;2022-12-07T01:47:34;8.60;;;3.95;;
69623;SDS011;56843;52.020;5.670;2022-12-07T01:49:06;12.73;;;3.90;;
69623;SDS011;56843;52.020;5.670;2022-12-07T01:50:40;8.52;;;3.33;;
69623;SDS011;56843;52.020;5.670;2022-12-07T01:52:26;9.35;;;3.80;;
69623;SDS011;56843;52.020;5.670;2022-12-07T01:54:00;7.23;;;3.50;;
69623;SDS011;56843;52.020;5.670;2022-12-07T01:55:31;8.38;;;3.50;;
69623;SDS011;56843;52.020;5.670;2022-12-07T01:57:02;8.43;;;3.80;;
69623;SDS011;56843;52.020;5.670;2022-12-07T01:58:36;7.85;;;3.85;;
69623;SDS011;56843;52.020;5.670;2022-12-07T02:00:07;10.80;;;4.32;;
69623;SDS011;56843;52.020;5.670;2022-12-07T02:03:39;9.50;;;4.87;;
69623;SDS011;56843;52.020;5.670;2022-12-07T02:05:12;13.85;;;3.58;;
69623;SDS011;56843;52.020;5.670;2022-12-07T02:06:44;11.98;;;2.70;;
69623;SDS011;56843;52.020;5.670;2022-12-07T02:08:15;8.43;;;3.53;;
69623;SDS011;56843;52.020;5.670;2022-12-07T02:09:47;10.45;;;3.85;;
69623;SDS011;56843;52.020;5.670;2022-12-07T02:11:18;8.73;;;3.70;;
69623;SDS011;56843;52.020;5.670;2022-12-07T02:12:53;9.82;;;3.50;;
69623;SDS011;56843;52.020;5.670;2022-12-07T02:14:38;14.13;;;4.00;;
69623;SDS011;56843;52.020;5.670;2022-12-07T02:18:17;14.75;;;4.50;;
69623;SDS011;56843;52.020;5.670;2022-12-07T02:22:23;9.18;;;3.25;;
69623;SDS011;56843;52.020;5.670;2022-12-07T02:24:14;12.52;;;3.92;;
69623;SDS011;56843;52.020;5.670;2022-12-07T02:26:01;6.73;;;2.50;;
69623;SDS011;56843;52.020;5.670;2022-12-07T02:27:47;13.55;;;3.58;;
69623;SDS011;56843;52.020;5.670;2022-12-07T02:29:41;7.72;;;3.22;;
69623;SDS011;56843;52.020;5.670;2022-12-07T02:31:16;11.60;;;4.38;;
69623;SDS011;56843;52.020;5.670;2022-12-07T02:32:58;9.93;;;4.43;;
69623;SDS011;56843;52.020;5.670;2022-12-07T02:34:37;7.40;;;2.90;;
69623;SDS011;56843;52.020;5.670;2022-12-07T02:36:28;9.05;;;3.97;;
69623;SDS011;56843;52.020;5.670;2022-12-07T02:42:27;10.93;;;5.03;;
69623;SDS011;56843;52.020;5.670;2022-12-07T02:44:03;12.45;;;4.43;;
69623;SDS011;56843;52.020;5.670;2022-12-07T02:45:39;12.63;;;5.03;;
69623;SDS011;56843;52.020;5.670;2022-12-07T02:47:12;9.25;;;4.07;;
69623;SDS011;56843;52.020;5.670;2022-12-07T02:48:45;15.43;;;5.00;;
69623;SDS011;56843;52.020;5.670;2022-12-07T02:50:19;11.13;;;5.20;;
69623;SDS011;56843;52.020;5.670;2022-12-07T02:51:51;10.90;;;4.40;;
69623;SDS011;56843;52.020;5.670;2022-12-07T02:53:29;11.40;;;4.23;;
69623;SDS011;56843;52.020;5.670;2022-12-07T02:55:01;11.25;;;5.05;;
69623;SDS011;56843;52.020;5.670;2022-12-07T03:00:03;15.02;;;5.38;;
69623;SDS011;56843;52.020;5.670;2022-12-07T03:01:41;7.77;;;3.00;;
69623;SDS011;56843;52.020;5.670;2022-12-07T03:03:23;9.50;;;4.07;;
69623;SDS011;56843;52.020;5.670;2022-12-07T03:06:36;16.50;;;4.65;;
69623;SDS011;56843;52.020;5.670;2022-12-07T03:11:41;12.30;;;4.80;;
69623;SDS011;56843;52.020;5.670;2022-12-07T03:15:13;11.57;;;5.43;;
69623;SDS011;56843;52.020;5.670;2022-12-07T03:18:33;11.57;;;4.90;;
69623;SDS011;56843;52.020;5.670;2022-12-07T03:20:09;16.38;;;6.03;;
69623;SDS011;56843;52.020;5.670;2022-12-07T03:21:44;13.43;;;5.53;;
69623;SDS011;56843;52.020;5.670;2022-12-07T03:23:18;19.15;;;5.40;;
69623;SDS011;56843;52.020;5.670;2022-12-07T03:24:53;10.03;;;4.73;;
69623;SDS011;56843;52.020;5.670;2022-12-07T03:26:32;12.57;;;4.43;;
69623;SDS011;56843;52.020;5.670;2022-12-07T03:28:07;9.02;;;3.67;;
69623;SDS011;56843;52.020;5.670;2022-12-07T03:29:41;14.45;;;5.38;;
69623;SDS011;56843;52.020;5.670;2022-12-07T03:33:00;12.40;;;5.32;;
69623;SDS011;56843;52.020;5.670;2022-12-07T03:34:42;13.43;;;6.13;;
69623;SDS011;56843;52.020;5.670;2022-12-07T03:36:20;8.53;;;2.80;;
69623;SDS011;56843;52.020;5.670;2022-12-07T03:39:57;15.57;;;6.10;;
69623;SDS011;56843;52.020;5.670;2022-12-07T03:41:37;15.38;;;5.22;;
69623;SDS011;56843;52.020;5.670;2022-12-07T03:43:08;19.15;;;5.72;;
69623;SDS011;56843;52.020;5.670;2022-12-07T03:44:39;16.47;;;6.30;;
69623;SDS011;56843;52.020;5.670;2022-12-07T03:48:22;14.98;;;5.40;;
69623;SDS011;56843;52.020;5.670;2022-12-07T03:49:59;10.98;;;5.03;;
69623;SDS011;56843;52.020;5.670;2022-12-07T03:54:11;14.33;;;5.10;;
69623;SDS011;56843;52.020;5.670;2022-12-07T03:55:48;12.47;;;4.40;;
69623;SDS011;56843;52.020;5.670;2022-12-07T03:57:20;10.43;;;4.50;;
69623;SDS011;56843;52.020;5.670;2022-12-07T03:58:54;9.98;;;4.18;;
69623;SDS011;56843;52.020;5.670;2022-12-07T04:00:24;11.77;;;3.00;;
69623;SDS011;56843;52.020;5.670;2022-12-07T04:01:57;13.43;;;5.38;;
69623;SDS011;56843;52.020;5.670;2022-12-07T04:03:31;11.35;;;4.13;;
69623;SDS011;56843;52.020;5.670;2022-12-07T04:05:02;9.27;;;4.60;;
69623;SDS011;56843;52.020;5.670;2022-12-07T04:06:33;14.00;;;4.60;;
69623;SDS011;56843;52.020;5.670;2022-12-07T04:08:10;24.63;;;5.47;;
69623;SDS011;56843;52.020;5.670;2022-12-07T04:09:40;10.30;;;4.40;;
69623;SDS011;56843;52.020;5.670;2022-12-07T04:11:12;10.53;;;4.53;;
69623;SDS011;56843;52.020;5.670;2022-12-07T04:12:42;13.50;;;4.80;;
69623;SDS011;56843;52.020;5.670;2022-12-07T04:14:13;11.97;;;4.63;;
69623;SDS011;56843;52.020;5.670;2022-12-07T04:15:50;11.70;;;4.70;;
69623;SDS011;56843;52.020;5.670;2022-12-07T04:17:21;11.55;;;4.57;;
69623;SDS011;56843;52.020;5.670;2022-12-07T04:18:51;9.40;;;4.43;;
69623;SDS011;56843;52.020;5.670;2022-12-07T04:20:22;13.03;;;4.90;;
69623;SDS011;56843;52.020;5.670;2022-12-07T04:21:53;9.18;;;3.72;;
69623;SDS011;56843;52.020;5.670;2022-12-07T04:23:26;13.37;;;3.50;;
69623;SDS011;56843;52.020;5.670;2022-12-07T04:24:57;10.52;;;3.20;;
69623;SDS011;56843;52.020;5.670;2022-12-07T04:26:28;14.25;;;3.30;;
69623;SDS011;56843;52.020;5.670;2022-12-07T04:28:00;14.02;;;4.07;;
69623;SDS011;56843;52.020;5.670;2022-12-07T04:29:31;11.63;;;3.23;;
69623;SDS011;56843;52.020;5.670;2022-12-07T04:31:01;8.37;;;2.83;;
69623;SDS011;56843;52.020;5.670;2022-12-07T04:32:32;11.57;;;3.20;;
69623;SDS011;56843;52.020;5.670;2022-12-07T04:34:04;9.70;;;3.58;;
69623;SDS011;56843;52.020;5.670;2022-12-07T04:35:35;17.83;;;4.72;;
69623;SDS011;56843;52.020;5.670;2022-12-07T04:37:05;13.30;;;4.20;;
69623;SDS011;56843;52.020;5.670;2022-12-07T04:38:36;7.50;;;3.27;;
69623;SDS011;56843;52.020;5.670;2022-12-07T04:40:08;13.48;;;4.10;;
69623;SDS011;56843;52.020;5.670;2022-12-07T04:41:41;11.43;;;4.32;;
69623;SDS011;56843;52.020;5.670;2022-12-07T04:43:11;11.17;;;3.40;;
69623;SDS011;56843;52.020;5.670;2022-12-07T04:44:41;20.87;;;4.63;;
69623;SDS011;56843;52.020;5.670;2022-12-07T04:46:13;10.98;;;4.70;;
69623;SDS011;56843;52.020;5.670;2022-12-07T04:47:43;9.70;;;4.07;;
69623;SDS011;56843;52.020;5.670;2022-12-07T04:49:14;10.23;;;3.13;;
69623;SDS011;56843;52.020;5.670;2022-12-07T04:50:47;8.77;;;3.22;;
69623;SDS011;56843;52.020;5.670;2022-12-07T04:52:20;10.07;;;3.33;;
69623;SDS011;56843;52.020;5.670;2022-12-07T04:53:50;11.30;;;4.35;;
69623;SDS011;56843;52.020;5.670;2022-12-07T04:55:23;13.82;;;3.38;;
69623;SDS011;56843;52.020;5.670;2022-12-07T04:56:54;8.20;;;3.30;;
69623;SDS011;56843;52.020;5.670;2022-12-07T04:58:24;19.07;;;3.70;;
69623;SDS011;56843;52.020;5.670;2022-12-07T04:59:55;10.63;;;3.80;;
69623;SDS011;56843;52.020;5.670;2022-12-07T05:01:25;7.53;;;2.95;;
69623;SDS011;56843;52.020;5.670;2022-12-07T05:02:56;7.03;;;3.30;;
69623;SDS011;56843;52.020;5.670;2022-12-07T05:04:26;8.30;;;3.30;;
69623;SDS011;56843;52.020;5.670;2022-12-07T05:05:57;5.90;;;2.13;;
69623;SDS011;56843;52.020;5.670;2022-12-07T05:07:27;10.30;;;3.20;;
69623;SDS011;56843;52.020;5.670;2022-12-07T05:08:58;9.30;;;3.15;;
69623;SDS011;56843;52.020;5.670;2022-12-07T05:10:29;8.07;;;2.93;;
69623;SDS011;56843;52.020;5.670;2022-12-07T05:11:59;10.00;;;3.05;;
69623;SDS011;56843;52.020;5.670;2022-12-07T05:13:30;7.77;;;2.77;;
69623;SDS011;56843;52.020;5.670;2022-12-07T05:15:02;15.38;;;2.50;;
69623;SDS011;56843;52.020;5.670;2022-12-07T05:16:32;11.73;;;3.15;;
69623;SDS011;56843;52.020;5.670;2022-12-07T05:18:04;5.20;;;2.23;;
69623;SDS011;56843;52.020;5.670;2022-12-07T05:19:34;7.13;;;2.92;;
69623;SDS011;56843;52.020;5.670;2022-12-07T05:21:05;8.63;;;2.43;;
69623;SDS011;56843;52.020;5.670;2022-12-07T05:22:35;8.73;;;2.92;;
69623;SDS011;56843;52.020;5.670;2022-12-07T05:24:07;9.27;;;3.40;;
69623;SDS011;56843;52.020;5.670;2022-12-07T05:25:39;9.35;;;3.03;;
69623;SDS011;56843;52.020;5.670;2022-12-07T05:27:11;6.17;;;2.30;;
69623;SDS011;56843;52.020;5.670;2022-12-07T05:28:42;7.13;;;2.25;;
69623;SDS011;56843;52.020;5.670;2022-12-07T05:30:13;6.57;;;2.35;;
69623;SDS011;56843;52.020;5.670;2022-12-07T05:31:44;8.20;;;2.70;;
69623;SDS011;56843;52.020;5.670;2022-12-07T05:33:14;6.80;;;2.13;;
69623;SDS011;56843;52.020;5.670;2022-12-07T05:34:45;11.23;;;2.90;;
69623;SDS011;56843;52.020;5.670;2022-12-07T05:36:16;6.28;;;2.35;;
69623;SDS011;56843;52.020;5.670;2022-12-07T05:37:48;11.10;;;2.30;;
69623;SDS011;56843;52.020;5.670;2022-12-07T05:39:19;6.97;;;2.10;;
69623;SDS011;56843;52.020;5.670;2022-12-07T05:40:50;4.53;;;1.70;;
69623;SDS011;56843;52.020;5.670;2022-12-07T05:42:24;10.35;;;2.50;;
69623;SDS011;56843;52.020;5.670;2022-12-07T05:44:01;14.48;;;2.80;;
69623;SDS011;56843;52.020;5.670;2022-12-07T05:45:32;7.35;;;3.03;;
69623;SDS011;56843;52.020;5.670;2022-12-07T05:47:02;11.50;;;2.60;;
69623;SDS011;56843;52.020;5.670;2022-12-07T05:48:33;10.15;;;2.35;;
69623;SDS011;56843;52.020;5.670;2022-12-07T05:50:04;6.67;;;2.33;;
69623;SDS011;56843;52.020;5.670;2022-12-07T05:51:37;6.88;;;2.10;;
69623;SDS011;56843;52.020;5.670;2022-12-07T05:53:08;8.90;;;2.40;;
69623;SDS011;56843;52.020;5.670;2022-12-07T05:54:39;4.95;;;1.83;;
69623;SDS011;56843;52.020;5.670;2022-12-07T05:56:15;9.80;;;2.30;;
69623;SDS011;56843;52.020;5.670;2022-12-07T05:57:46;6.38;;;2.30;;
69623;SDS011;56843;52.020;5.670;2022-12-07T05:59:35;10.10;;;2.60;;
69623;SDS011;56843;52.020;5.670;2022-12-07T06:01:06;5.80;;;2.37;;
69623;SDS011;56843;52.020;5.670;2022-12-07T06:02:36;4.85;;;1.63;;
69623;SDS011;56843;52.020;5.670;2022-12-07T06:04:14;6.53;;;2.20;;
69623;SDS011;56843;52.020;5.670;2022-12-07T06:05:44;4.55;;;1.85;;
69623;SDS011;56843;52.020;5.670;2022-12-07T06:07:15;4.88;;;1.95;;
69623;SDS011;56843;52.020;5.670;2022-12-07T06:08:47;4.97;;;1.83;;
69623;SDS011;56843;52.020;5.670;2022-12-07T06:10:18;8.90;;;2.50;;
69623;SDS011;56843;52.020;5.670;2022-12-07T06:11:48;12.03;;;3.07;;
69623;SDS011;56843;52.020;5.670;2022-12-07T06:13:37;7.13;;;2.40;;
69623;SDS011;56843;52.020;5.670;2022-12-07T06:15:09;12.38;;;2.10;;
69623;SDS011;56843;52.020;5.670;2022-12-07T06:16:40;7.03;;;2.38;;
69623;SDS011;56843;52.020;5.670;2022-12-07T06:18:11;6.87;;;2.53;;
69623;SDS011;56843;52.020;5.670;2022-12-07T06:19:42;4.93;;;1.83;;
69623;SDS011;56843;52.020;5.670;2022-12-07T06:21:14;9.23;;;3.47;;
69623;SDS011;56843;52.020;5.670;2022-12-07T06:22:45;7.47;;;2.78;;
69623;SDS011;56843;52.020;5.670;2022-12-07T06:24:17;13.90;;;3.40;;
69623;SDS011;56843;52.020;5.670;2022-12-07T06:25:48;6.43;;;2.63;;
69623;SDS011;56843;52.020;5.670;2022-12-07T06:27:19;11.80;;;2.88;;
69623;SDS011;56843;52.020;5.670;2022-12-07T06:28:50;11.37;;;4.17;;
69623;SDS011;56843;52.020;5.670;2022-12-07T06:30:21;10.68;;;3.17;;
69623;SDS011;56843;52.020;5.670;2022-12-07T06:31:52;5.63;;;2.35;;
69623;SDS011;56843;52.020;5.670;2022-12-07T06:33:22;9.40;;;2.10;;
69623;SDS011;56843;52.020;5.670;2022-12-07T06:34:53;6.43;;;2.08;;
69623;SDS011;56843;52.020;5.670;2022-12-07T06:36:24;11.73;;;2.80;;
69623;SDS011;56843;52.020;5.670;2022-12-07T06:37:54;6.80;;;2.33;;
69623;SDS011;56843;52.020;5.670;2022-12-07T06:39:25;8.60;;;2.67;;
69623;SDS011;56843;52.020;5.670;2022-12-07T06:40:57;5.25;;;2.33;;
69623;SDS011;56843;52.020;5.670;2022-12-07T06:42:30;8.35;;;2.97;;
69623;SDS011;56843;52.020;5.670;2022-12-07T06:44:02;9.77;;;3.10;;
69623;SDS011;56843;52.020;5.670;2022-12-07T06:45:33;11.77;;;3.53;;
69623;SDS011;56843;52.020;5.670;2022-12-07T06:47:04;6.67;;;2.87;;
69623;SDS011;56843;52.020;5.670;2022-12-07T06:48:35;7.55;;;2.97;;
69623;SDS011;56843;52.020;5.670;2022-12-07T06:50:06;8.87;;;3.80;;
69623;SDS011;56843;52.020;5.670;2022-12-07T06:51:37;9.07;;;3.75;;
69623;SDS011;56843;52.020;5.670;2022-12-07T06:53:11;15.10;;;3.88;;
69623;SDS011;56843;52.020;5.670;2022-12-07T06:54:41;12.80;;;3.20;;
69623;SDS011;56843;52.020;5.670;2022-12-07T06:56:12;8.90;;;3.40;;
69623;SDS011;56843;52.020;5.670;2022-12-07T06:57:42;5.77;;;2.13;;
69623;SDS011;56843;52.020;5.670;2022-12-07T06:59:13;6.87;;;2.50;;
69623;SDS011;56843;52.020;5.670;2022-12-07T07:00:44;4.72;;;2.25;;
69623;SDS011;56843;52.020;5.670;2022-12-07T07:02:15;14.05;;;3.00;;
69623;SDS011;56843;52.020;5.670;2022-12-07T07:03:48;9.67;;;1.93;;
69623;SDS011;56843;52.020;5.670;2022-12-07T07:05:20;7.20;;;2.35;;
69623;SDS011;56843;52.020;5.670;2022-12-07T07:06:53;7.20;;;2.40;;
69623;SDS011;56843;52.020;5.670;2022-12-07T07:08:24;7.20;;;2.10;;
69623;SDS011;56843;52.020;5.670;2022-12-07T07:09:55;6.45;;;2.63;;
69623;SDS011;56843;52.020;5.670;2022-12-07T07:11:25;5.30;;;2.03;;
69623;SDS011;56843;52.020;5.670;2022-12-07T07:12:56;12.27;;;2.78;;
69623;SDS011;56843;52.020;5.670;2022-12-07T07:14:27;7.97;;;2.70;;
69623;SDS011;56843;52.020;5.670;2022-12-07T07:15:57;7.35;;;2.83;;
69623;SDS011;56843;52.020;5.670;2022-12-07T07:17:28;13.18;;;4.75;;
69623;SDS011;56843;52.020;5.670;2022-12-07T07:18:59;9.23;;;3.70;;
69623;SDS011;56843;52.020;5.670;2022-12-07T07:20:29;11.15;;;3.78;;
69623;SDS011;56843;52.020;5.670;2022-12-07T07:22:00;7.73;;;3.03;;
69623;SDS011;56843;52.020;5.670;2022-12-07T07:23:31;9.85;;;2.30;;
69623;SDS011;56843;52.020;5.670;2022-12-07T07:25:02;11.80;;;2.87;;
69623;SDS011;56843;52.020;5.670;2022-12-07T07:26:32;8.50;;;3.03;;
69623;SDS011;56843;52.020;5.670;2022-12-07T07:28:03;9.00;;;2.67;;
69623;SDS011;56843;52.020;5.670;2022-12-07T07:29:34;14.13;;;4.00;;
69623;SDS011;56843;52.020;5.670;2022-12-07T07:31:05;4.60;;;1.80;;
69623;SDS011;56843;52.020;5.670;2022-12-07T07:32:36;6.93;;;2.43;;
69623;SDS011;56843;52.020;5.670;2022-12-07T07:34:06;13.33;;;3.00;;
69623;SDS011;56843;52.020;5.670;2022-12-07T07:35:37;6.20;;;2.08;;
69623;SDS011;56843;52.020;5.670;2022-12-07T07:37:09;5.55;;;1.92;;
69623;SDS011;56843;52.020;5.670;2022-12-07T07:38:41;12.95;;;3.00;;
69623;SDS011;56843;52.020;5.670;2022-12-07T07:40:11;7.90;;;2.13;;
69623;SDS011;56843;52.020;5.670;2022-12-07T07:41:42;5.95;;;2.20;;
69623;SDS011;56843;52.020;5.670;2022-12-07T07:43:17;8.25;;;3.00;;
69623;SDS011;56843;52.020;5.670;2022-12-07T07:44:48;7.87;;;2.10;;
69623;SDS011;56843;52.020;5.670;2022-12-07T07:46:21;8.18;;;1.85;;
69623;SDS011;56843;52.020;5.670;2022-12-07T07:47:55;9.68;;;3.05;;
69623;SDS011;56843;52.020;5.670;2022-12-07T07:49:26;8.10;;;2.33;;
69623;SDS011;56843;52.020;5.670;2022-12-07T07:50:57;6.93;;;2.53;;
69623;SDS011;56843;52.020;5.670;2022-12-07T07:52:27;15.60;;;3.05;;
69623;SDS011;56843;52.020;5.670;2022-12-07T07:53:58;6.43;;;1.80;;
69623;SDS011;56843;52.020;5.670;2022-12-07T07:55:29;7.28;;;2.40;;
69623;SDS011;56843;52.020;5.670;2022-12-07T07:57:00;6.22;;;2.30;;
69623;SDS011;56843;52.020;5.670;2022-12-07T07:58:30;5.40;;;1.97;;
69623;SDS011;56843;52.020;5.670;2022-12-07T08:00:03;12.00;;;2.30;;
69623;SDS011;56843;52.020;5.670;2022-12-07T08:01:42;6.78;;;2.40;;
69623;SDS011;56843;52.020;5.670;2022-12-07T08:03:13;10.47;;;2.43;;
69623;SDS011;56843;52.020;5.670;2022-12-07T08:04:44;5.37;;;2.40;;
69623;SDS011;56843;52.020;5.670;2022-12-07T08:06:21;5.45;;;2.10;;
69623;SDS011;56843;52.020;5.670;2022-12-07T08:07:52;8.50;;;2.40;;
69623;SDS011;56843;52.020;5.670;2022-12-07T08:09:23;11.27;;;2.22;;
69623;SDS011;56843;52.020;5.670;2022-12-07T08:10:54;6.30;;;2.20;;
69623;SDS011;56843;52.020;5.670;2022-12-07T08:12:58;8.83;;;2.30;;
69623;SDS011;56843;52.020;5.670;2022-12-07T08:14:40;4.93;;;2.00;;
69623;SDS011;56843;52.020;5.670;2022-12-07T08:16:14;5.47;;;1.88;;
69623;SDS011;56843;52.020;5.670;2022-12-07T08:17:48;6.03;;;1.95;;
69623;SDS011;56843;52.020;5.670;2022-12-07T08:19:18;11.43;;;1.90;;
69623;SDS011;56843;52.020;5.670;2022-12-07T08:20:49;10.63;;;2.05;;
69623;SDS011;56843;52.020;5.670;2022-12-07T08:22:20;13.93;;;2.60;;
69623;SDS011;56843;52.020;5.670;2022-12-07T08:23:50;6.03;;;1.77;;
69623;SDS011;56843;52.020;5.670;2022-12-07T08:25:21;9.45;;;2.55;;
69623;SDS011;56843;52.020;5.670;2022-12-07T08:26:52;10.63;;;2.15;;
69623;SDS011;56843;52.020;5.670;2022-12-07T08:28:23;7.13;;;2.30;;
69623;SDS011;56843;52.020;5.670;2022-12-07T08:29:54;9.20;;;2.90;;
69623;SDS011;56843;52.020;5.670;2022-12-07T08:31:25;10.90;;;2.50;;
69623;SDS011;56843;52.020;5.670;2022-12-07T08:32:57;8.18;;;2.10;;
69623;SDS011;56843;52.020;5.670;2022-12-07T08:34:28;5.68;;;1.63;;
69623;SDS011;56843;52.020;5.670;2022-12-07T08:36:02;7.53;;;2.00;;
69623;SDS011;56843;52.020;5.670;2022-12-07T08:37:35;10.80;;;2.28;;
69623;SDS011;56843;52.020;5.670;2022-12-07T08:39:05;13.13;;;2.80;;
69623;SDS011;56843;52.020;5.670;2022-12-07T08:40:36;15.40;;;4.37;;
69623;SDS011;56843;52.020;5.670;2022-12-07T08:42:07;5.50;;;2.42;;
69623;SDS011;56843;52.020;5.670;2022-12-07T08:43:37;6.03;;;2.03;;
69623;SDS011;56843;52.020;5.670;2022-12-07T08:45:09;7.90;;;2.20;;
69623;SDS011;56843;52.020;5.670;2022-12-07T08:46:44;11.52;;;2.33;;
69623;SDS011;56843;52.020;5.670;2022-12-07T08:48:21;8.18;;;2.25;;
69623;SDS011;56843;52.020;5.670;2022-12-07T08:49:54;6.38;;;2.00;;
69623;SDS011;56843;52.020;5.670;2022-12-07T08:51:25;12.47;;;2.30;;
69623;SDS011;56843;52.020;5.670;2022-12-07T08:52:56;12.18;;;2.70;;
69623;SDS011;56843;52.020;5.670;2022-12-07T08:54:29;10.32;;;1.95;;
69623;SDS011;56843;52.020;5.670;2022-12-07T08:56:00;8.18;;;2.35;;
69623;SDS011;56843;52.020;5.670;2022-12-07T08:57:31;8.57;;;2.03;;
69623;SDS011;56843;52.020;5.670;2022-12-07T08:59:05;10.63;;;2.03;;
69623;SDS011;56843;52.020;5.670;2022-12-07T09:00:37;11.13;;;2.00;;
69623;SDS011;56843;52.020;5.670;2022-12-07T09:02:07;13.63;;;2.40;;
69623;SDS011;56843;52.020;5.670;2022-12-07T09:03:38;12.95;;;2.50;;
69623;SDS011;56843;52.020;5.670;2022-12-07T09:05:09;15.13;;;4.33;;
69623;SDS011;56843;52.020;5.670;2022-12-07T09:06:40;15.23;;;5.57;;
69623;SDS011;56843;52.020;5.670;2022-12-07T09:08:13;14.38;;;4.90;;
69623;SDS011;56843;52.020;5.670;2022-12-07T09:09:44;9.27;;;3.80;;
69623;SDS011;56843;52.020;5.670;2022-12-07T09:11:14;10.47;;;2.70;;
69623;SDS011;56843;52.020;5.670;2022-12-07T09:12:45;18.87;;;2.73;;
69623;SDS011;56843;52.020;5.670;2022-12-07T09:14:15;8.35;;;2.70;;
69623;SDS011;56843;52.020;5.670;2022-12-07T09:15:47;14.27;;;2.45;;
69623;SDS011;56843;52.020;5.670;2022-12-07T09:17:18;11.20;;;2.77;;
69623;SDS011;56843;52.020;5.670;2022-12-07T09:18:48;8.03;;;2.77;;
69623;SDS011;56843;52.020;5.670;2022-12-07T09:20:19;9.90;;;2.38;;
69623;SDS011;56843;52.020;5.670;2022-12-07T09:21:49;8.10;;;2.30;;
69623;SDS011;56843;52.020;5.670;2022-12-07T09:23:22;6.47;;;2.75;;
69623;SDS011;56843;52.020;5.670;2022-12-07T09:24:53;8.55;;;2.25;;
69623;SDS011;56843;52.020;5.670;2022-12-07T09:26:24;9.30;;;2.10;;
69623;SDS011;56843;52.020;5.670;2022-12-07T09:27:55;8.15;;;1.98;;
69623;SDS011;56843;52.020;5.670;2022-12-07T09:29:27;7.10;;;2.63;;
69623;SDS011;56843;52.020;5.670;2022-12-07T09:30:58;10.17;;;2.37;;
69623;SDS011;56843;52.020;5.670;2022-12-07T09:32:28;9.25;;;2.35;;
69623;SDS011;56843;52.020;5.670;2022-12-07T09:33:59;12.37;;;2.80;;
69623;SDS011;56843;52.020;5.670;2022-12-07T09:35:31;8.93;;;2.33;;
69623;SDS011;56843;52.020;5.670;2022-12-07T09:37:01;8.83;;;2.00;;
69623;SDS011;56843;52.020;5.670;2022-12-07T09:38:34;7.82;;;2.63;;
69623;SDS011;56843;52.020;5.670;2022-12-07T09:40:05;12.45;;;2.72;;
69623;SDS011;56843;52.020;5.670;2022-12-07T09:41:39;13.05;;;2.88;;
69623;SDS011;56843;52.020;5.670;2022-12-07T09:43:19;9.85;;;2.78;;
69623;SDS011;56843;52.020;5.670;2022-12-07T09:44:52;12.40;;;2.47;;